Strona główna
METAR-TAF:

METAR-TAF

Lotnisko :

Port lotniczy Hawarden

Hawarden, Walia

Szerokość geograficzna: 53-10N, Długość geograficzna: 002-59W, wysokość: 10 m

Aktualna obserwacja pogody

Raport powstał 28 minut temu, godzina 07:50 UTC
Wiatr 3 kt z kierunków zmiennych
Temperatura 17°C
Wilgotność 72%
Ciśnienie 1010 hPa
Widzialność 10 km lub więcej
Rozproszone chmury na wysokości 3000 ft

METAR: EGNR 250750Z VRB03KT 9999 SCT030 17/12 Q1010

czas: 09:18 (08:18 UTC)

Prognoza

Raport powstał 1 godzina i 9 minut temu, godzina 07:09 UTC
Prognoza ważna od 25 godzina 07 UTC do 25 godzina 15 UTC
Wiatr 7 kt od północno-północny zachód
Widzialność 10 km lub więcej
Rozproszone chmury na wysokości 3300 ft

TAF: EGNR 250709Z 2507/2515 33007KT 9999 SCT033

Obserwacja i prognoza pogody dla ponad 4000 lotnisk (raport METAR i TAF).

Dostępne stacje oznaczono żółtymi i czerwonymi punktami na mapie.

Najedź kursorem aby zobaczyć nazwę stacji.

Kliknij aby zobaczyć obserwacje i prognozy pogody.

Aby zmienić mapę: kliknij na zielony przycisk z czarnym krzyżykiem, aby powiększyć; na zielony przycisk z myślnikiem, aby pomniejszyć; na zielone strzałki, aby przejść do map sąsiednich.


METAR-TAF: